sensor_id;sensor_type;location;lat;lon;timestamp;P1;durP1;ratioP1;P2;durP2;ratioP2
45208;SDS011;30951;43.994;26.260;2023-11-21T00:01:58;8.50;;;5.35;;
45208;SDS011;30951;43.994;26.260;2023-11-21T00:04:24;9.13;;;5.20;;
45208;SDS011;30951;43.994;26.260;2023-11-21T00:06:50;10.60;;;5.35;;
45208;SDS011;30951;43.994;26.260;2023-11-21T00:09:16;12.00;;;5.93;;
45208;SDS011;30951;43.994;26.260;2023-11-21T00:11:43;9.48;;;5.72;;
45208;SDS011;30951;43.994;26.260;2023-11-21T00:14:09;14.48;;;6.25;;
45208;SDS011;30951;43.994;26.260;2023-11-21T00:16:36;10.25;;;5.03;;
45208;SDS011;30951;43.994;26.260;2023-11-21T00:19:01;15.75;;;6.03;;
45208;SDS011;30951;43.994;26.260;2023-11-21T00:21:27;13.32;;;5.65;;
45208;SDS011;30951;43.994;26.260;2023-11-21T00:23:52;8.48;;;5.50;;
45208;SDS011;30951;43.994;26.260;2023-11-21T00:26:18;9.85;;;5.78;;
45208;SDS011;30951;43.994;26.260;2023-11-21T00:28:43;8.27;;;5.68;;
45208;SDS011;30951;43.994;26.260;2023-11-21T00:31:09;14.63;;;6.55;;
45208;SDS011;30951;43.994;26.260;2023-11-21T00:33:34;10.60;;;6.75;;
45208;SDS011;30951;43.994;26.260;2023-11-21T00:36:00;11.13;;;6.32;;
45208;SDS011;30951;43.994;26.260;2023-11-21T00:38:26;10.00;;;6.78;;
45208;SDS011;30951;43.994;26.260;2023-11-21T00:40:52;9.98;;;6.03;;
45208;SDS011;30951;43.994;26.260;2023-11-21T00:43:21;11.23;;;5.93;;
45208;SDS011;30951;43.994;26.260;2023-11-21T00:45:48;14.38;;;6.00;;
45208;SDS011;30951;43.994;26.260;2023-11-21T00:48:14;11.98;;;6.43;;
45208;SDS011;30951;43.994;26.260;2023-11-21T00:50:40;10.07;;;6.28;;
45208;SDS011;30951;43.994;26.260;2023-11-21T00:53:05;11.52;;;7.03;;
45208;SDS011;30951;43.994;26.260;2023-11-21T00:55:32;10.15;;;6.60;;
45208;SDS011;30951;43.994;26.260;2023-11-21T00:57:58;10.15;;;5.88;;
45208;SDS011;30951;43.994;26.260;2023-11-21T01:00:25;15.32;;;7.20;;
45208;SDS011;30951;43.994;26.260;2023-11-21T01:02:50;13.35;;;6.72;;
45208;SDS011;30951;43.994;26.260;2023-11-21T01:05:16;13.38;;;6.95;;
45208;SDS011;30951;43.994;26.260;2023-11-21T01:07:42;13.25;;;7.00;;
45208;SDS011;30951;43.994;26.260;2023-11-21T01:10:07;13.55;;;7.00;;
45208;SDS011;30951;43.994;26.260;2023-11-21T01:12:34;14.60;;;7.72;;
45208;SDS011;30951;43.994;26.260;2023-11-21T01:15:02;13.10;;;8.68;;
45208;SDS011;30951;43.994;26.260;2023-11-21T01:17:28;12.15;;;7.55;;
45208;SDS011;30951;43.994;26.260;2023-11-21T01:19:53;13.07;;;7.80;;
45208;SDS011;30951;43.994;26.260;2023-11-21T01:22:19;11.32;;;7.50;;
45208;SDS011;30951;43.994;26.260;2023-11-21T01:24:50;16.42;;;8.15;;
45208;SDS011;30951;43.994;26.260;2023-11-21T01:27:16;14.15;;;7.07;;
45208;SDS011;30951;43.994;26.260;2023-11-21T01:29:42;11.63;;;7.78;;
45208;SDS011;30951;43.994;26.260;2023-11-21T01:32:07;13.48;;;7.07;;
45208;SDS011;30951;43.994;26.260;2023-11-21T01:34:33;16.40;;;8.50;;
45208;SDS011;30951;43.994;26.260;2023-11-21T01:36:59;14.90;;;8.88;;
45208;SDS011;30951;43.994;26.260;2023-11-21T01:39:24;16.67;;;9.15;;
45208;SDS011;30951;43.994;26.260;2023-11-21T01:41:50;22.65;;;8.95;;
45208;SDS011;30951;43.994;26.260;2023-11-21T01:44:17;17.42;;;8.88;;
45208;SDS011;30951;43.994;26.260;2023-11-21T01:46:44;16.63;;;9.90;;
45208;SDS011;30951;43.994;26.260;2023-11-21T01:49:11;19.88;;;10.07;;
45208;SDS011;30951;43.994;26.260;2023-11-21T01:51:38;20.98;;;9.45;;
45208;SDS011;30951;43.994;26.260;2023-11-21T01:54:06;13.40;;;8.60;;
45208;SDS011;30951;43.994;26.260;2023-11-21T01:56:32;13.18;;;8.48;;
45208;SDS011;30951;43.994;26.260;2023-11-21T01:58:58;17.65;;;9.05;;
45208;SDS011;30951;43.994;26.260;2023-11-21T02:01:23;18.92;;;8.60;;
45208;SDS011;30951;43.994;26.260;2023-11-21T02:03:51;14.98;;;8.45;;
45208;SDS011;30951;43.994;26.260;2023-11-21T02:06:16;15.75;;;7.80;;
45208;SDS011;30951;43.994;26.260;2023-11-21T02:08:42;17.85;;;8.18;;
45208;SDS011;30951;43.994;26.260;2023-11-21T02:11:09;16.48;;;7.95;;
45208;SDS011;30951;43.994;26.260;2023-11-21T02:13:38;15.20;;;7.75;;
45208;SDS011;30951;43.994;26.260;2023-11-21T02:16:09;37.97;;;12.43;;
45208;SDS011;30951;43.994;26.260;2023-11-21T02:18:35;19.98;;;9.02;;
45208;SDS011;30951;43.994;26.260;2023-11-21T02:21:03;18.67;;;7.85;;
45208;SDS011;30951;43.994;26.260;2023-11-21T02:23:29;17.83;;;7.85;;
45208;SDS011;30951;43.994;26.260;2023-11-21T02:25:55;18.08;;;7.93;;
45208;SDS011;30951;43.994;26.260;2023-11-21T02:28:20;14.88;;;8.13;;
45208;SDS011;30951;43.994;26.260;2023-11-21T02:30:51;16.52;;;8.27;;
45208;SDS011;30951;43.994;26.260;2023-11-21T02:33:21;17.40;;;9.23;;
45208;SDS011;30951;43.994;26.260;2023-11-21T02:35:46;16.70;;;9.38;;
45208;SDS011;30951;43.994;26.260;2023-11-21T02:38:12;17.40;;;9.13;;
45208;SDS011;30951;43.994;26.260;2023-11-21T02:40:38;15.30;;;9.02;;
45208;SDS011;30951;43.994;26.260;2023-11-21T02:43:04;17.42;;;9.18;;
45208;SDS011;30951;43.994;26.260;2023-11-21T02:45:31;17.52;;;8.68;;
45208;SDS011;30951;43.994;26.260;2023-11-21T02:47:57;18.42;;;9.05;;
45208;SDS011;30951;43.994;26.260;2023-11-21T02:50:23;17.33;;;8.70;;
45208;SDS011;30951;43.994;26.260;2023-11-21T02:52:49;18.67;;;8.02;;
45208;SDS011;30951;43.994;26.260;2023-11-21T02:55:14;11.85;;;7.63;;
45208;SDS011;30951;43.994;26.260;2023-11-21T02:57:40;15.65;;;8.80;;
45208;SDS011;30951;43.994;26.260;2023-11-21T03:00:06;15.98;;;8.65;;
45208;SDS011;30951;43.994;26.260;2023-11-21T03:02:41;18.05;;;8.70;;
45208;SDS011;30951;43.994;26.260;2023-11-21T03:05:06;17.90;;;8.95;;
45208;SDS011;30951;43.994;26.260;2023-11-21T03:07:34;17.30;;;8.68;;
45208;SDS011;30951;43.994;26.260;2023-11-21T03:10:00;17.95;;;9.25;;
45208;SDS011;30951;43.994;26.260;2023-11-21T03:12:26;15.82;;;9.13;;
45208;SDS011;30951;43.994;26.260;2023-11-21T03:14:51;17.90;;;8.93;;
45208;SDS011;30951;43.994;26.260;2023-11-21T03:17:17;13.73;;;9.00;;
45208;SDS011;30951;43.994;26.260;2023-11-21T03:19:42;14.00;;;8.02;;
45208;SDS011;30951;43.994;26.260;2023-11-21T03:22:08;20.63;;;10.05;;
45208;SDS011;30951;43.994;26.260;2023-11-21T03:24:34;39.35;;;18.83;;
45208;SDS011;30951;43.994;26.260;2023-11-21T03:26:59;26.85;;;13.02;;
45208;SDS011;30951;43.994;26.260;2023-11-21T03:29:25;33.03;;;17.13;;
45208;SDS011;30951;43.994;26.260;2023-11-21T03:31:51;20.55;;;10.18;;
45208;SDS011;30951;43.994;26.260;2023-11-21T03:34:23;20.08;;;11.45;;
45208;SDS011;30951;43.994;26.260;2023-11-21T03:36:50;18.45;;;9.10;;
45208;SDS011;30951;43.994;26.260;2023-11-21T03:39:16;16.92;;;9.05;;
45208;SDS011;30951;43.994;26.260;2023-11-21T03:41:41;15.65;;;8.40;;
45208;SDS011;30951;43.994;26.260;2023-11-21T03:44:07;14.05;;;8.63;;
45208;SDS011;30951;43.994;26.260;2023-11-21T03:46:32;16.52;;;8.13;;
45208;SDS011;30951;43.994;26.260;2023-11-21T03:48:58;19.85;;;8.18;;
45208;SDS011;30951;43.994;26.260;2023-11-21T03:51:23;12.35;;;7.18;;
45208;SDS011;30951;43.994;26.260;2023-11-21T03:53:49;14.13;;;7.38;;
45208;SDS011;30951;43.994;26.260;2023-11-21T03:56:15;13.27;;;6.78;;
45208;SDS011;30951;43.994;26.260;2023-11-21T03:58:40;14.48;;;6.32;;
45208;SDS011;30951;43.994;26.260;2023-11-21T04:01:06;13.65;;;7.10;;
45208;SDS011;30951;43.994;26.260;2023-11-21T04:03:31;12.43;;;7.70;;
45208;SDS011;30951;43.994;26.260;2023-11-21T04:05:57;14.98;;;6.70;;
45208;SDS011;30951;43.994;26.260;2023-11-21T04:08:26;12.40;;;7.18;;
45208;SDS011;30951;43.994;26.260;2023-11-21T04:10:51;15.50;;;8.50;;
45208;SDS011;30951;43.994;26.260;2023-11-21T04:13:18;13.45;;;7.10;;
45208;SDS011;30951;43.994;26.260;2023-11-21T04:15:44;17.48;;;7.13;;
45208;SDS011;30951;43.994;26.260;2023-11-21T04:18:09;11.65;;;6.38;;
45208;SDS011;30951;43.994;26.260;2023-11-21T04:20:35;11.35;;;6.47;;
45208;SDS011;30951;43.994;26.260;2023-11-21T04:23:01;11.20;;;6.78;;
45208;SDS011;30951;43.994;26.260;2023-11-21T04:25:26;11.45;;;6.65;;
45208;SDS011;30951;43.994;26.260;2023-11-21T04:27:53;18.88;;;7.28;;
45208;SDS011;30951;43.994;26.260;2023-11-21T04:30:19;12.73;;;6.03;;
45208;SDS011;30951;43.994;26.260;2023-11-21T04:32:46;7.95;;;5.20;;
45208;SDS011;30951;43.994;26.260;2023-11-21T04:35:11;11.23;;;5.78;;
45208;SDS011;30951;43.994;26.260;2023-11-21T04:37:37;10.57;;;5.85;;
45208;SDS011;30951;43.994;26.260;2023-11-21T04:40:02;14.68;;;5.75;;
45208;SDS011;30951;43.994;26.260;2023-11-21T04:42:32;11.68;;;5.70;;
45208;SDS011;30951;43.994;26.260;2023-11-21T04:44:59;8.60;;;4.95;;
45208;SDS011;30951;43.994;26.260;2023-11-21T04:47:24;10.63;;;5.22;;
45208;SDS011;30951;43.994;26.260;2023-11-21T04:49:50;10.02;;;5.63;;
45208;SDS011;30951;43.994;26.260;2023-11-21T04:52:15;9.95;;;5.65;;
45208;SDS011;30951;43.994;26.260;2023-11-21T04:54:42;9.90;;;6.05;;
45208;SDS011;30951;43.994;26.260;2023-11-21T04:57:08;17.98;;;6.38;;
45208;SDS011;30951;43.994;26.260;2023-11-21T04:59:34;11.52;;;5.57;;
45208;SDS011;30951;43.994;26.260;2023-11-21T05:01:59;9.73;;;4.93;;
45208;SDS011;30951;43.994;26.260;2023-11-21T05:04:25;8.70;;;5.40;;
45208;SDS011;30951;43.994;26.260;2023-11-21T05:06:51;10.57;;;5.30;;
45208;SDS011;30951;43.994;26.260;2023-11-21T05:09:16;8.90;;;5.18;;
45208;SDS011;30951;43.994;26.260;2023-11-21T05:11:42;11.15;;;5.25;;
45208;SDS011;30951;43.994;26.260;2023-11-21T05:14:08;10.00;;;5.63;;
45208;SDS011;30951;43.994;26.260;2023-11-21T05:16:34;16.95;;;6.13;;
45208;SDS011;30951;43.994;26.260;2023-11-21T05:19:00;9.38;;;5.28;;
45208;SDS011;30951;43.994;26.260;2023-11-21T05:21:29;12.20;;;5.90;;
45208;SDS011;30951;43.994;26.260;2023-11-21T05:23:57;10.10;;;6.13;;
45208;SDS011;30951;43.994;26.260;2023-11-21T05:26:22;15.63;;;6.45;;
45208;SDS011;30951;43.994;26.260;2023-11-21T05:28:48;11.32;;;5.50;;
45208;SDS011;30951;43.994;26.260;2023-11-21T05:31:13;11.23;;;6.25;;
45208;SDS011;30951;43.994;26.260;2023-11-21T05:33:39;16.67;;;7.38;;
45208;SDS011;30951;43.994;26.260;2023-11-21T05:36:04;14.75;;;7.50;;
45208;SDS011;30951;43.994;26.260;2023-11-21T05:38:32;14.80;;;7.57;;
45208;SDS011;30951;43.994;26.260;2023-11-21T05:40:58;18.40;;;7.60;;
45208;SDS011;30951;43.994;26.260;2023-11-21T05:43:24;23.02;;;9.50;;
45208;SDS011;30951;43.994;26.260;2023-11-21T05:45:49;23.83;;;11.20;;
45208;SDS011;30951;43.994;26.260;2023-11-21T05:48:15;26.58;;;12.93;;
45208;SDS011;30951;43.994;26.260;2023-11-21T05:50:40;22.25;;;12.45;;
45208;SDS011;30951;43.994;26.260;2023-11-21T05:53:06;28.83;;;15.50;;
45208;SDS011;30951;43.994;26.260;2023-11-21T05:55:32;29.25;;;15.93;;
45208;SDS011;30951;43.994;26.260;2023-11-21T05:57:58;36.92;;;17.10;;
45208;SDS011;30951;43.994;26.260;2023-11-21T06:00:23;34.80;;;16.23;;
45208;SDS011;30951;43.994;26.260;2023-11-21T06:02:51;34.33;;;15.18;;
45208;SDS011;30951;43.994;26.260;2023-11-21T06:05:24;25.42;;;10.75;;
45208;SDS011;30951;43.994;26.260;2023-11-21T06:07:50;38.75;;;20.58;;
45208;SDS011;30951;43.994;26.260;2023-11-21T06:10:17;38.55;;;18.75;;
45208;SDS011;30951;43.994;26.260;2023-11-21T06:12:44;33.15;;;16.70;;
45208;SDS011;30951;43.994;26.260;2023-11-21T06:15:10;33.13;;;15.98;;
45208;SDS011;30951;43.994;26.260;2023-11-21T06:17:40;19.15;;;9.32;;
45208;SDS011;30951;43.994;26.260;2023-11-21T06:20:06;16.15;;;7.85;;
45208;SDS011;30951;43.994;26.260;2023-11-21T06:22:39;14.43;;;5.75;;
45208;SDS011;30951;43.994;26.260;2023-11-21T06:25:06;13.65;;;4.45;;
45208;SDS011;30951;43.994;26.260;2023-11-21T06:27:33;6.75;;;4.65;;
45208;SDS011;30951;43.994;26.260;2023-11-21T06:30:11;6.80;;;3.47;;
45208;SDS011;30951;43.994;26.260;2023-11-21T06:32:38;4.85;;;3.47;;
45208;SDS011;30951;43.994;26.260;2023-11-21T06:35:05;6.72;;;3.33;;
45208;SDS011;30951;43.994;26.260;2023-11-21T06:37:32;7.93;;;3.60;;
45208;SDS011;30951;43.994;26.260;2023-11-21T06:39:57;7.55;;;4.30;;
45208;SDS011;30951;43.994;26.260;2023-11-21T06:42:24;12.80;;;3.88;;
45208;SDS011;30951;43.994;26.260;2023-11-21T06:44:50;12.05;;;5.70;;
45208;SDS011;30951;43.994;26.260;2023-11-21T06:47:22;5.80;;;4.03;;
45208;SDS011;30951;43.994;26.260;2023-11-21T06:49:50;8.85;;;4.65;;
45208;SDS011;30951;43.994;26.260;2023-11-21T06:52:16;8.93;;;3.75;;
45208;SDS011;30951;43.994;26.260;2023-11-21T06:54:43;6.03;;;4.03;;
45208;SDS011;30951;43.994;26.260;2023-11-21T06:57:09;10.57;;;3.72;;
45208;SDS011;30951;43.994;26.260;2023-11-21T06:59:34;10.23;;;3.53;;
45208;SDS011;30951;43.994;26.260;2023-11-21T07:02:00;5.57;;;2.88;;
45208;SDS011;30951;43.994;26.260;2023-11-21T07:04:25;6.13;;;2.92;;
45208;SDS011;30951;43.994;26.260;2023-11-21T07:06:54;4.82;;;2.20;;
45208;SDS011;30951;43.994;26.260;2023-11-21T07:09:20;6.72;;;2.33;;
45208;SDS011;30951;43.994;26.260;2023-11-21T07:11:50;2.97;;;1.80;;
45208;SDS011;30951;43.994;26.260;2023-11-21T07:14:15;5.90;;;2.80;;
45208;SDS011;30951;43.994;26.260;2023-11-21T07:16:42;6.38;;;2.55;;
45208;SDS011;30951;43.994;26.260;2023-11-21T07:19:08;8.93;;;4.80;;
45208;SDS011;30951;43.994;26.260;2023-11-21T07:21:33;5.40;;;3.08;;
45208;SDS011;30951;43.994;26.260;2023-11-21T07:24:00;11.38;;;2.78;;
45208;SDS011;30951;43.994;26.260;2023-11-21T07:26:28;5.10;;;2.65;;
45208;SDS011;30951;43.994;26.260;2023-11-21T07:28:54;8.73;;;3.65;;
45208;SDS011;30951;43.994;26.260;2023-11-21T07:31:21;7.65;;;4.20;;
45208;SDS011;30951;43.994;26.260;2023-11-21T07:33:47;11.10;;;4.93;;
45208;SDS011;30951;43.994;26.260;2023-11-21T07:36:13;13.27;;;5.63;;
45208;SDS011;30951;43.994;26.260;2023-11-21T07:38:39;9.23;;;4.68;;
45208;SDS011;30951;43.994;26.260;2023-11-21T07:41:05;18.17;;;4.88;;
45208;SDS011;30951;43.994;26.260;2023-11-21T07:43:33;15.77;;;5.25;;
45208;SDS011;30951;43.994;26.260;2023-11-21T07:46:03;9.57;;;3.70;;
45208;SDS011;30951;43.994;26.260;2023-11-21T07:48:32;10.63;;;4.40;;
45208;SDS011;30951;43.994;26.260;2023-11-21T07:50:58;8.25;;;4.20;;
45208;SDS011;30951;43.994;26.260;2023-11-21T07:53:25;9.43;;;4.22;;
45208;SDS011;30951;43.994;26.260;2023-11-21T07:55:53;10.13;;;4.43;;
45208;SDS011;30951;43.994;26.260;2023-11-21T07:58:19;9.02;;;4.70;;
45208;SDS011;30951;43.994;26.260;2023-11-21T08:00:44;8.20;;;4.32;;
45208;SDS011;30951;43.994;26.260;2023-11-21T08:03:10;8.77;;;5.05;;
45208;SDS011;30951;43.994;26.260;2023-11-21T08:05:36;11.75;;;5.47;;
45208;SDS011;30951;43.994;26.260;2023-11-21T08:08:02;13.82;;;5.57;;
45208;SDS011;30951;43.994;26.260;2023-11-21T08:10:27;9.60;;;4.18;;
45208;SDS011;30951;43.994;26.260;2023-11-21T08:12:53;9.93;;;3.45;;
45208;SDS011;30951;43.994;26.260;2023-11-21T08:15:19;7.85;;;3.88;;
45208;SDS011;30951;43.994;26.260;2023-11-21T08:17:45;9.48;;;3.70;;
45208;SDS011;30951;43.994;26.260;2023-11-21T08:20:11;9.20;;;3.30;;
45208;SDS011;30951;43.994;26.260;2023-11-21T08:22:37;7.25;;;3.53;;
45208;SDS011;30951;43.994;26.260;2023-11-21T08:25:06;5.47;;;2.97;;
45208;SDS011;30951;43.994;26.260;2023-11-21T08:27:33;20.10;;;7.97;;
45208;SDS011;30951;43.994;26.260;2023-11-21T08:30:00;9.65;;;6.07;;
45208;SDS011;30951;43.994;26.260;2023-11-21T08:32:28;10.60;;;5.43;;
45208;SDS011;30951;43.994;26.260;2023-11-21T08:34:55;11.27;;;4.38;;
45208;SDS011;30951;43.994;26.260;2023-11-21T08:37:21;10.32;;;3.92;;
45208;SDS011;30951;43.994;26.260;2023-11-21T08:39:47;11.20;;;6.85;;
45208;SDS011;30951;43.994;26.260;2023-11-21T08:42:13;10.85;;;6.40;;
45208;SDS011;30951;43.994;26.260;2023-11-21T08:44:39;11.20;;;3.97;;
45208;SDS011;30951;43.994;26.260;2023-11-21T08:47:05;6.40;;;2.88;;
45208;SDS011;30951;43.994;26.260;2023-11-21T08:49:31;5.90;;;2.67;;
45208;SDS011;30951;43.994;26.260;2023-11-21T08:51:57;8.15;;;2.78;;
45208;SDS011;30951;43.994;26.260;2023-11-21T08:54:26;6.68;;;2.78;;
45208;SDS011;30951;43.994;26.260;2023-11-21T08:56:52;8.93;;;3.65;;
45208;SDS011;30951;43.994;26.260;2023-11-21T08:59:18;6.45;;;2.85;;
45208;SDS011;30951;43.994;26.260;2023-11-21T09:01:45;5.82;;;2.67;;
45208;SDS011;30951;43.994;26.260;2023-11-21T09:04:11;6.88;;;2.90;;
45208;SDS011;30951;43.994;26.260;2023-11-21T09:06:37;7.30;;;2.95;;
45208;SDS011;30951;43.994;26.260;2023-11-21T09:09:03;8.40;;;2.67;;
45208;SDS011;30951;43.994;26.260;2023-11-21T09:11:31;10.75;;;3.28;;
45208;SDS011;30951;43.994;26.260;2023-11-21T09:13:59;8.73;;;3.17;;
45208;SDS011;30951;43.994;26.260;2023-11-21T09:16:25;8.13;;;2.40;;
45208;SDS011;30951;43.994;26.260;2023-11-21T09:18:50;13.18;;;3.90;;
45208;SDS011;30951;43.994;26.260;2023-11-21T09:21:16;7.05;;;3.30;;
45208;SDS011;30951;43.994;26.260;2023-11-21T09:23:45;12.88;;;4.03;;
45208;SDS011;30951;43.994;26.260;2023-11-21T09:26:11;13.82;;;4.22;;
45208;SDS011;30951;43.994;26.260;2023-11-21T09:28:36;17.63;;;4.97;;
45208;SDS011;30951;43.994;26.260;2023-11-21T09:31:07;10.40;;;4.10;;
45208;SDS011;30951;43.994;26.260;2023-11-21T09:33:34;6.10;;;3.08;;
45208;SDS011;30951;43.994;26.260;2023-11-21T09:36:00;7.05;;;3.78;;
45208;SDS011;30951;43.994;26.260;2023-11-21T09:38:26;8.85;;;4.50;;
45208;SDS011;30951;43.994;26.260;2023-11-21T09:40:54;8.27;;;3.45;;
45208;SDS011;30951;43.994;26.260;2023-11-21T09:43:20;8.25;;;3.90;;
45208;SDS011;30951;43.994;26.260;2023-11-21T09:45:47;6.97;;;3.20;;
45208;SDS011;30951;43.994;26.260;2023-11-21T09:48:18;5.70;;;2.45;;
45208;SDS011;30951;43.994;26.260;2023-11-21T09:50:45;5.43;;;3.00;;
45208;SDS011;30951;43.994;26.260;2023-11-21T09:55:52;7.78;;;3.53;;
45208;SDS011;30951;43.994;26.260;2023-11-21T09:58:19;8.32;;;3.20;;
45208;SDS011;30951;43.994;26.260;2023-11-21T10:00:47;6.45;;;2.85;;
45208;SDS011;30951;43.994;26.260;2023-11-21T10:03:14;12.70;;;3.38;;
45208;SDS011;30951;43.994;26.260;2023-11-21T10:05:41;6.28;;;2.83;;
45208;SDS011;30951;43.994;26.260;2023-11-21T10:08:08;8.65;;;3.15;;
45208;SDS011;30951;43.994;26.260;2023-11-21T10:10:35;6.82;;;3.05;;
45208;SDS011;30951;43.994;26.260;2023-11-21T10:13:02;9.38;;;3.40;;
45208;SDS011;30951;43.994;26.260;2023-11-21T10:15:35;6.55;;;3.05;;
45208;SDS011;30951;43.994;26.260;2023-11-21T10:18:02;6.60;;;3.55;;
45208;SDS011;30951;43.994;26.260;2023-11-21T10:20:28;10.38;;;3.47;;
45208;SDS011;30951;43.994;26.260;2023-11-21T10:22:54;12.30;;;3.30;;
45208;SDS011;30951;43.994;26.260;2023-11-21T10:25:21;4.60;;;2.72;;
45208;SDS011;30951;43.994;26.260;2023-11-21T10:27:48;4.47;;;2.50;;
45208;SDS011;30951;43.994;26.260;2023-11-21T10:30:17;6.60;;;3.13;;
45208;SDS011;30951;43.994;26.260;2023-11-21T10:32:43;6.93;;;2.72;;
45208;SDS011;30951;43.994;26.260;2023-11-21T10:35:08;7.65;;;2.90;;
45208;SDS011;30951;43.994;26.260;2023-11-21T10:37:35;6.80;;;3.22;;
45208;SDS011;30951;43.994;26.260;2023-11-21T10:40:05;5.72;;;2.88;;
45208;SDS011;30951;43.994;26.260;2023-11-21T10:42:32;5.97;;;2.05;;
45208;SDS011;30951;43.994;26.260;2023-11-21T10:44:58;4.45;;;1.90;;
45208;SDS011;30951;43.994;26.260;2023-11-21T10:47:24;4.03;;;1.90;;
45208;SDS011;30951;43.994;26.260;2023-11-21T10:49:49;6.53;;;2.70;;
45208;SDS011;30951;43.994;26.260;2023-11-21T10:52:15;6.72;;;2.75;;
45208;SDS011;30951;43.994;26.260;2023-11-21T10:54:42;3.45;;;2.45;;
45208;SDS011;30951;43.994;26.260;2023-11-21T10:57:08;5.80;;;2.50;;
45208;SDS011;30951;43.994;26.260;2023-11-21T10:59:37;3.25;;;2.40;;
45208;SDS011;30951;43.994;26.260;2023-11-21T11:02:07;3.30;;;2.38;;
45208;SDS011;30951;43.994;26.260;2023-11-21T11:04:57;4.53;;;1.80;;
45208;SDS011;30951;43.994;26.260;2023-11-21T11:07:25;4.22;;;2.47;;
45208;SDS011;30951;43.994;26.260;2023-11-21T11:09:53;2.60;;;1.85;;
45208;SDS011;30951;43.994;26.260;2023-11-21T11:12:19;5.57;;;2.30;;
45208;SDS011;30951;43.994;26.260;2023-11-21T11:14:45;5.90;;;2.40;;
45208;SDS011;30951;43.994;26.260;2023-11-21T11:17:13;3.40;;;1.80;;
45208;SDS011;30951;43.994;26.260;2023-11-21T11:19:38;7.00;;;1.90;;
45208;SDS011;30951;43.994;26.260;2023-11-21T11:33:19;5.95;;;2.00;;
45208;SDS011;30951;43.994;26.260;2023-11-21T11:35:59;3.80;;;1.58;;
45208;SDS011;30951;43.994;26.260;2023-11-21T11:38:36;7.85;;;1.90;;
45208;SDS011;30951;43.994;26.260;2023-11-21T11:41:02;5.65;;;1.80;;
45208;SDS011;30951;43.994;26.260;2023-11-21T11:43:29;6.18;;;1.80;;
45208;SDS011;30951;43.994;26.260;2023-11-21T11:45:56;3.72;;;1.50;;
45208;SDS011;30951;43.994;26.260;2023-11-21T11:48:24;4.32;;;1.77;;
45208;SDS011;30951;43.994;26.260;2023-11-21T11:51:06;10.43;;;2.78;;
45208;SDS011;30951;43.994;26.260;2023-11-21T11:53:47;4.68;;;2.28;;
45208;SDS011;30951;43.994;26.260;2023-11-21T11:56:29;6.35;;;2.03;;
45208;SDS011;30951;43.994;26.260;2023-11-21T11:59:04;6.85;;;2.33;;
45208;SDS011;30951;43.994;26.260;2023-11-21T12:06:50;9.02;;;2.20;;
45208;SDS011;30951;43.994;26.260;2023-11-21T12:09:19;5.55;;;2.13;;
45208;SDS011;30951;43.994;26.260;2023-11-21T12:11:47;6.78;;;2.00;;
45208;SDS011;30951;43.994;26.260;2023-11-21T12:14:13;12.50;;;2.30;;
45208;SDS011;30951;43.994;26.260;2023-11-21T12:16:39;4.50;;;1.73;;
45208;SDS011;30951;43.994;26.260;2023-11-21T12:19:05;5.28;;;1.95;;
45208;SDS011;30951;43.994;26.260;2023-11-21T12:21:30;8.82;;;1.90;;
45208;SDS011;30951;43.994;26.260;2023-11-21T12:23:57;21.23;;;3.67;;
45208;SDS011;30951;43.994;26.260;2023-11-21T12:26:23;4.15;;;1.85;;
45208;SDS011;30951;43.994;26.260;2023-11-21T12:28:52;5.15;;;1.90;;
45208;SDS011;30951;43.994;26.260;2023-11-21T12:31:23;9.43;;;2.00;;
45208;SDS011;30951;43.994;26.260;2023-11-21T12:33:49;3.20;;;1.90;;
45208;SDS011;30951;43.994;26.260;2023-11-21T12:36:16;4.80;;;1.70;;
45208;SDS011;30951;43.994;26.260;2023-11-21T12:38:42;6.30;;;1.95;;
45208;SDS011;30951;43.994;26.260;2023-11-21T12:41:09;4.00;;;1.92;;
45208;SDS011;30951;43.994;26.260;2023-11-21T12:43:35;4.38;;;2.30;;
45208;SDS011;30951;43.994;26.260;2023-11-21T12:46:07;7.10;;;1.50;;
45208;SDS011;30951;43.994;26.260;2023-11-21T12:48:39;9.32;;;2.25;;
45208;SDS011;30951;43.994;26.260;2023-11-21T12:51:09;9.75;;;1.92;;
45208;SDS011;30951;43.994;26.260;2023-11-21T12:53:37;8.60;;;2.63;;
45208;SDS011;30951;43.994;26.260;2023-11-21T12:56:10;4.50;;;2.17;;
45208;SDS011;30951;43.994;26.260;2023-11-21T12:58:37;10.20;;;2.25;;
45208;SDS011;30951;43.994;26.260;2023-11-21T13:01:07;7.28;;;2.67;;
45208;SDS011;30951;43.994;26.260;2023-11-21T13:03:40;14.57;;;2.63;;
45208;SDS011;30951;43.994;26.260;2023-11-21T13:06:06;5.10;;;2.28;;
45208;SDS011;30951;43.994;26.260;2023-11-21T13:08:32;11.65;;;2.63;;
45208;SDS011;30951;43.994;26.260;2023-11-21T13:10:58;7.93;;;2.97;;
45208;SDS011;30951;43.994;26.260;2023-11-21T13:13:25;9.48;;;3.00;;
45208;SDS011;30951;43.994;26.260;2023-11-21T13:15:58;10.30;;;2.95;;
45208;SDS011;30951;43.994;26.260;2023-11-21T13:18:33;11.25;;;2.50;;
45208;SDS011;30951;43.994;26.260;2023-11-21T13:20:59;6.57;;;2.58;;
45208;SDS011;30951;43.994;26.260;2023-11-21T13:23:28;6.18;;;2.47;;
45208;SDS011;30951;43.994;26.260;2023-11-21T13:25:54;7.18;;;2.83;;
45208;SDS011;30951;43.994;26.260;2023-11-21T13:28:20;10.93;;;4.00;;
45208;SDS011;30951;43.994;26.260;2023-11-21T13:30:46;9.10;;;4.53;;
45208;SDS011;30951;43.994;26.260;2023-11-21T13:33:13;13.65;;;5.85;;
45208;SDS011;30951;43.994;26.260;2023-11-21T13:35:43;13.68;;;5.97;;
45208;SDS011;30951;43.994;26.260;2023-11-21T13:38:16;8.27;;;4.67;;
45208;SDS011;30951;43.994;26.260;2023-11-21T13:40:47;6.93;;;4.17;;
45208;SDS011;30951;43.994;26.260;2023-11-21T13:43:14;10.05;;;5.18;;
45208;SDS011;30951;43.994;26.260;2023-11-21T13:45:41;11.38;;;5.45;;
45208;SDS011;30951;43.994;26.260;2023-11-21T13:48:07;18.27;;;6.00;;
45208;SDS011;30951;43.994;26.260;2023-11-21T13:50:45;11.55;;;6.60;;
45208;SDS011;30951;43.994;26.260;2023-11-21T13:53:23;7.38;;;3.63;;
45208;SDS011;30951;43.994;26.260;2023-11-21T13:55:49;11.05;;;2.63;;
45208;SDS011;30951;43.994;26.260;2023-11-21T13:58:16;9.07;;;3.30;;
45208;SDS011;30951;43.994;26.260;2023-11-21T14:00:48;5.90;;;2.70;;
45208;SDS011;30951;43.994;26.260;2023-11-21T14:03:22;6.60;;;2.90;;
45208;SDS011;30951;43.994;26.260;2023-11-21T14:05:49;7.93;;;3.58;;
45208;SDS011;30951;43.994;26.260;2023-11-21T14:08:20;13.68;;;6.70;;
45208;SDS011;30951;43.994;26.260;2023-11-21T14:10:49;19.55;;;10.70;;
45208;SDS011;30951;43.994;26.260;2023-11-21T14:13:18;14.82;;;6.38;;
45208;SDS011;30951;43.994;26.260;2023-11-21T14:15:48;11.57;;;6.28;;
45208;SDS011;30951;43.994;26.260;2023-11-21T14:18:16;16.80;;;10.18;;
45208;SDS011;30951;43.994;26.260;2023-11-21T14:20:43;20.20;;;8.35;;
45208;SDS011;30951;43.994;26.260;2023-11-21T14:23:09;23.67;;;8.45;;
45208;SDS011;30951;43.994;26.260;2023-11-21T14:25:36;7.88;;;4.53;;
45208;SDS011;30951;43.994;26.260;2023-11-21T14:28:05;9.45;;;4.78;;
45208;SDS011;30951;43.994;26.260;2023-11-21T14:30:34;11.13;;;3.80;;
45208;SDS011;30951;43.994;26.260;2023-11-21T14:33:04;38.75;;;21.60;;
45208;SDS011;30951;43.994;26.260;2023-11-21T14:35:30;25.60;;;13.02;;
45208;SDS011;30951;43.994;26.260;2023-11-21T14:37:57;26.77;;;16.25;;
45208;SDS011;30951;43.994;26.260;2023-11-21T14:40:24;12.20;;;6.72;;
45208;SDS011;30951;43.994;26.260;2023-11-21T14:42:50;27.63;;;10.38;;
45208;SDS011;30951;43.994;26.260;2023-11-21T14:45:21;19.52;;;9.18;;